createdAt,value
2023-05-15T00:00:54.717Z,90.84
2023-05-15T00:03:52.367Z,90.83
2023-05-15T00:06:50.189Z,90.76
2023-05-15T00:09:47.723Z,90.74
2023-05-15T00:12:45.332Z,90.72
2023-05-15T00:15:42.790Z,90.74
2023-05-15T00:18:41.178Z,90.74
2023-05-15T00:21:38.791Z,90.74
2023-05-15T00:24:36.537Z,90.72
2023-05-15T00:27:34.142Z,90.71
2023-05-15T00:30:31.601Z,90.68
2023-05-15T00:33:29.126Z,90.69
2023-05-15T00:36:26.615Z,90.73
2023-05-15T00:39:24.361Z,90.73
2023-05-15T00:42:21.820Z,90.70
2023-05-15T00:45:19.592Z,90.71
2023-05-15T00:48:17.202Z,90.70
2023-05-15T00:51:14.633Z,90.76
2023-05-15T00:54:12.375Z,90.78
2023-05-15T00:57:09.766Z,90.81
2023-05-15T01:00:10.877Z,90.86
2023-05-15T01:03:08.414Z,90.91
2023-05-15T01:06:06.157Z,90.97
2023-05-15T01:09:04.590Z,90.98
2023-05-15T01:12:02.143Z,90.98
2023-05-15T01:15:00.543Z,91.01
2023-05-15T01:17:58.026Z,91.07
2023-05-15T01:20:55.850Z,91.09
2023-05-15T01:23:53.494Z,91.10
2023-05-15T01:26:51.116Z,91.11
2023-05-15T01:29:48.743Z,91.07
2023-05-15T01:32:46.206Z,91.09
2023-05-15T01:35:44.063Z,91.12
2023-05-15T01:38:41.519Z,91.15
2023-05-15T01:41:39.151Z,91.13
2023-05-15T01:44:36.606Z,91.10
2023-05-15T01:47:34.288Z,91.10
2023-05-15T01:50:31.990Z,91.14
2023-05-15T01:53:29.432Z,91.13
2023-05-15T01:56:27.181Z,91.15
2023-05-15T01:59:24.630Z,91.17
2023-05-15T02:02:22.356Z,91.20
2023-05-15T02:05:19.769Z,91.20
2023-05-15T02:08:17.570Z,91.20
2023-05-15T02:11:15.311Z,91.19
2023-05-15T02:14:12.719Z,91.19
2023-05-15T02:17:10.461Z,91.21
2023-05-15T02:20:08.629Z,91.16
2023-05-15T02:23:06.326Z,91.20
2023-05-15T02:26:04.613Z,91.22
2023-05-15T02:29:02.290Z,91.23
2023-05-15T02:31:59.731Z,91.23
2023-05-15T02:34:57.585Z,91.21
2023-05-15T02:37:54.987Z,91.22
2023-05-15T02:40:52.701Z,91.22
2023-05-15T02:43:50.338Z,91.22
2023-05-15T02:46:47.739Z,91.21
2023-05-15T02:49:45.354Z,91.14
2023-05-15T02:52:42.812Z,91.14
2023-05-15T02:55:40.608Z,91.15
2023-05-15T02:58:38.054Z,91.15
2023-05-15T03:01:35.874Z,91.12
2023-05-15T03:04:33.326Z,91.07
2023-05-15T03:07:30.978Z,91.12
2023-05-15T03:10:28.720Z,91.09
2023-05-15T03:13:26.187Z,91.07
2023-05-15T03:16:23.967Z,90.99
2023-05-15T03:19:21.413Z,90.99
2023-05-15T03:22:19.014Z,90.99
2023-05-15T03:25:16.482Z,90.96
2023-05-15T03:28:14.127Z,90.94
2023-05-15T03:31:11.640Z,90.89
2023-05-15T03:34:09.396Z,90.80
2023-05-15T03:37:07.214Z,90.81
2023-05-15T03:40:04.884Z,90.76
2023-05-15T03:43:02.635Z,90.68
2023-05-15T03:46:00.075Z,90.62
2023-05-15T03:48:57.744Z,90.63
2023-05-15T03:51:55.218Z,90.62
2023-05-15T03:54:52.982Z,90.71
2023-05-15T03:57:50.553Z,90.73
2023-05-15T04:00:48.003Z,90.72
2023-05-15T04:03:45.664Z,90.60
2023-05-15T04:06:43.067Z,90.52
2023-05-15T04:09:40.794Z,90.52
2023-05-15T04:12:38.233Z,90.46
2023-05-15T04:15:36.023Z,90.34
2023-05-15T04:18:33.495Z,90.14
2023-05-15T04:21:33.321Z,89.92
2023-05-15T04:24:30.895Z,89.45
2023-05-15T04:27:28.654Z,89.08
2023-05-15T04:30:26.290Z,88.77
2023-05-15T04:33:23.788Z,88.49
2023-05-15T04:36:22.040Z,88.18
2023-05-15T04:39:19.443Z,87.98
2023-05-15T04:42:17.037Z,87.91
2023-05-15T04:45:14.863Z,87.74
2023-05-15T04:48:12.458Z,87.68
2023-05-15T04:51:10.156Z,87.76
2023-05-15T04:54:07.568Z,87.81
2023-05-15T04:57:05.315Z,87.67
2023-05-15T05:00:02.788Z,87.70
2023-05-15T05:03:00.417Z,87.69
2023-05-15T05:05:58.092Z,87.59
2023-05-15T05:08:55.836Z,87.42
2023-05-15T05:11:53.511Z,87.21
2023-05-15T05:14:50.965Z,87.17
2023-05-15T05:17:49.434Z,87.09
2023-05-15T05:20:47.030Z,86.56
2023-05-15T05:23:44.776Z,86.26
2023-05-15T05:26:42.199Z,86.05
2023-05-15T05:29:40.402Z,85.90
2023-05-15T05:32:38.120Z,85.74
2023-05-15T05:35:35.624Z,85.44
2023-05-15T05:38:33.576Z,85.08
2023-05-15T05:41:31.000Z,85.09
2023-05-15T05:44:28.730Z,84.71
2023-05-15T05:47:26.235Z,84.51
2023-05-15T05:50:23.876Z,84.22
2023-05-15T05:53:24.552Z,84.15
2023-05-15T05:56:22.776Z,84.00
2023-05-15T05:59:20.355Z,83.80
2023-05-15T06:02:17.829Z,83.58
2023-05-15T06:05:15.832Z,83.40
2023-05-15T06:08:13.361Z,82.84
2023-05-15T06:11:11.102Z,82.65
2023-05-15T06:14:09.595Z,82.77
2023-05-15T06:17:07.425Z,82.85
2023-05-15T06:20:07.382Z,82.76
2023-05-15T06:23:04.785Z,82.84
2023-05-15T06:26:03.497Z,82.72
2023-05-15T06:29:00.942Z,82.51
2023-05-15T06:31:58.592Z,82.19
2023-05-15T06:34:56.067Z,82.07
2023-05-15T06:37:56.477Z,81.88
2023-05-15T06:40:55.201Z,81.80
2023-05-15T06:43:52.901Z,82.18
2023-05-15T06:46:51.201Z,81.72
2023-05-15T06:49:48.718Z,81.33
2023-05-15T06:52:48.137Z,80.40
2023-05-15T06:55:45.589Z,79.98
2023-05-15T06:58:43.455Z,79.51
2023-05-15T07:01:40.916Z,79.54
2023-05-15T07:04:38.607Z,79.04
2023-05-15T07:07:36.090Z,78.90
2023-05-15T07:10:33.817Z,78.07
2023-05-15T07:13:31.895Z,78.17
2023-05-15T07:16:29.328Z,76.96
2023-05-15T07:19:27.193Z,76.40
2023-05-15T07:22:24.649Z,76.02
2023-05-15T07:25:22.848Z,74.84
2023-05-15T07:28:20.561Z,74.30
2023-05-15T07:31:18.256Z,73.79
2023-05-15T07:34:15.708Z,72.72
2023-05-15T07:37:14.896Z,73.03
2023-05-15T07:43:33.570Z,72.66
2023-05-15T07:46:34.450Z,73.07
2023-05-15T07:49:31.882Z,73.24
2023-05-15T07:52:29.616Z,72.96
2023-05-15T07:55:27.187Z,72.66
2023-05-15T07:58:25.113Z,72.41
2023-05-15T08:01:22.528Z,72.10
2023-05-15T08:04:22.164Z,71.69
2023-05-15T08:07:21.842Z,71.14
2023-05-15T08:10:19.256Z,70.67
2023-05-15T08:13:17.440Z,70.77
2023-05-15T08:16:14.926Z,70.62
2023-05-15T08:19:12.551Z,70.16
2023-05-15T08:22:10.019Z,70.05
2023-05-15T08:25:09.710Z,69.18
2023-05-15T08:28:07.917Z,68.91
2023-05-15T08:31:05.376Z,67.88
2023-05-15T08:34:03.667Z,67.09
2023-05-15T08:37:01.101Z,66.22
2023-05-15T08:39:58.722Z,65.60
2023-05-15T08:42:56.272Z,65.97
2023-05-15T08:45:54.007Z,65.19
2023-05-15T08:48:51.488Z,65.50
2023-05-15T08:51:49.573Z,65.26
2023-05-15T08:54:48.705Z,64.26
2023-05-15T08:57:46.282Z,64.45
2023-05-15T09:00:43.957Z,63.73
2023-05-15T09:03:41.420Z,63.33
2023-05-15T09:06:38.997Z,62.76
2023-05-15T09:09:36.580Z,62.93
2023-05-15T09:12:34.340Z,63.02
2023-05-15T09:15:32.494Z,62.39
2023-05-15T09:18:29.896Z,61.98
2023-05-15T09:21:27.634Z,61.22
2023-05-15T09:24:25.347Z,61.60
2023-05-15T09:27:23.056Z,61.54
2023-05-15T09:30:21.381Z,62.76
2023-05-15T09:33:19.123Z,62.67
2023-05-15T09:36:16.793Z,63.40
2023-05-15T09:39:14.260Z,63.38
2023-05-15T09:42:11.932Z,63.20
2023-05-15T09:45:09.406Z,62.48
2023-05-15T09:48:07.323Z,62.53
2023-05-15T09:51:07.833Z,62.40
2023-05-15T09:54:05.534Z,61.06
2023-05-15T09:57:03.283Z,59.64
2023-05-15T10:00:00.714Z,58.83
2023-05-15T10:02:58.321Z,57.34
2023-05-15T10:05:55.865Z,56.95
2023-05-15T10:08:53.872Z,55.03
2023-05-15T10:11:51.655Z,54.81
2023-05-15T10:14:49.154Z,53.35
2023-05-15T10:17:46.909Z,52.10
2023-05-15T10:20:44.427Z,53.32
2023-05-15T10:23:42.178Z,52.64
2023-05-15T10:26:39.626Z,53.66
2023-05-15T10:29:37.252Z,53.43
2023-05-15T10:32:35.023Z,53.42
2023-05-15T10:35:32.625Z,54.24
2023-05-15T10:38:31.958Z,55.24
2023-05-15T10:41:29.414Z,54.45
2023-05-15T10:44:27.152Z,54.36
2023-05-15T10:47:24.985Z,54.92
2023-05-15T10:50:22.466Z,54.37
2023-05-15T10:53:20.245Z,54.89
2023-05-15T10:56:17.737Z,53.95
2023-05-15T10:59:15.455Z,53.63
2023-05-15T11:02:12.896Z,53.30
2023-05-15T11:05:13.363Z,52.13
2023-05-15T11:08:10.812Z,52.63
2023-05-15T11:11:08.592Z,51.52
2023-05-15T11:14:06.044Z,49.03
2023-05-15T11:17:05.091Z,48.51
2023-05-15T11:20:03.836Z,46.64
2023-05-15T11:23:01.279Z,46.03
2023-05-15T11:25:59.007Z,46.32
2023-05-15T11:28:56.419Z,44.71
2023-05-15T11:31:54.480Z,45.22
2023-05-15T11:34:51.857Z,44.83
2023-05-15T11:37:49.933Z,44.22
2023-05-15T11:40:47.722Z,42.28
2023-05-15T11:43:45.124Z,43.25
2023-05-15T11:46:43.859Z,42.97
2023-05-15T11:49:41.266Z,42.07
2023-05-15T11:52:38.899Z,42.06
2023-05-15T11:55:38.070Z,42.17
2023-05-15T11:58:35.488Z,42.15
2023-05-15T12:01:33.028Z,42.92
2023-05-15T12:04:31.980Z,42.45
2023-05-15T12:07:29.749Z,42.45
2023-05-15T12:10:27.310Z,42.41
2023-05-15T12:13:25.141Z,40.71
2023-05-15T12:16:22.972Z,39.98
2023-05-15T12:19:20.451Z,39.82
2023-05-15T12:22:19.331Z,39.97
2023-05-15T12:25:17.723Z,39.72
2023-05-15T12:28:17.448Z,40.43
2023-05-15T12:31:14.900Z,39.12
2023-05-15T12:34:12.742Z,39.45
2023-05-15T12:37:10.321Z,40.39
2023-05-15T12:40:10.388Z,40.20
2023-05-15T12:43:10.996Z,40.02
2023-05-15T12:46:08.502Z,40.87
2023-05-15T12:49:06.172Z,40.93
2023-05-15T12:52:03.560Z,41.25
2023-05-15T12:55:01.279Z,41.22
2023-05-15T12:57:59.069Z,41.19
2023-05-15T13:00:57.104Z,40.64
2023-05-15T13:03:55.007Z,40.29
2023-05-15T13:06:52.776Z,40.91
2023-05-15T13:09:52.764Z,41.17
2023-05-15T13:12:50.176Z,41.26
2023-05-15T13:15:47.805Z,41.21
2023-05-15T13:18:45.513Z,40.97
2023-05-15T13:21:44.006Z,40.46
2023-05-15T13:24:42.273Z,40.67
2023-05-15T13:27:39.782Z,39.70
2023-05-15T13:30:39.299Z,39.62
2023-05-15T13:33:37.614Z,40.31
2023-05-15T13:36:35.226Z,39.93
2023-05-15T13:39:32.919Z,39.44
2023-05-15T13:42:30.349Z,39.90
2023-05-15T13:45:28.046Z,39.79
2023-05-15T13:48:25.850Z,40.50
2023-05-15T13:51:23.572Z,39.73
2023-05-15T13:54:20.962Z,39.81
2023-05-15T13:57:18.701Z,40.04
2023-05-15T14:00:16.675Z,39.96
2023-05-15T14:03:15.252Z,40.21
2023-05-15T14:06:13.626Z,40.51
2023-05-15T14:09:11.169Z,40.66
2023-05-15T14:12:10.098Z,40.70
2023-05-15T14:15:07.551Z,40.64
2023-05-15T14:18:05.283Z,40.40
2023-05-15T14:21:02.749Z,41.11
2023-05-15T14:24:00.663Z,40.87
2023-05-15T14:26:58.138Z,40.75
2023-05-15T14:29:57.119Z,41.15
2023-05-15T14:32:55.038Z,41.36
2023-05-15T14:35:52.532Z,41.73
2023-05-15T14:38:50.217Z,41.36
2023-05-15T14:41:47.814Z,41.79
2023-05-15T14:44:45.404Z,41.65
2023-05-15T14:47:43.176Z,42.12
2023-05-15T14:50:40.973Z,42.15
2023-05-15T14:53:38.673Z,42.43
2023-05-15T14:56:36.400Z,42.47
2023-05-15T14:59:34.071Z,42.80
2023-05-15T15:02:31.586Z,42.86
2023-05-15T15:05:29.440Z,43.06
2023-05-15T15:08:26.895Z,43.77
2023-05-15T15:11:24.532Z,43.93
2023-05-15T15:14:21.946Z,43.68
2023-05-15T15:17:19.657Z,44.12
2023-05-15T15:20:17.105Z,43.44
2023-05-15T15:23:16.503Z,43.89
2023-05-15T15:26:13.901Z,43.84
2023-05-15T15:29:11.832Z,43.68
2023-05-15T15:32:09.602Z,43.94
2023-05-15T15:35:07.277Z,43.54
2023-05-15T15:38:07.515Z,43.63
2023-05-15T15:41:05.694Z,43.92
2023-05-15T15:44:03.444Z,44.34
2023-05-15T15:47:01.520Z,44.65
2023-05-15T15:49:58.919Z,44.80
2023-05-15T15:52:56.669Z,44.75
2023-05-15T15:55:54.337Z,44.89
2023-05-15T15:58:52.068Z,45.13
2023-05-15T16:01:49.609Z,45.37
2023-05-15T16:04:47.409Z,45.85
2023-05-15T16:07:44.954Z,46.04
2023-05-15T16:10:42.549Z,46.31
2023-05-15T16:13:41.161Z,46.76
2023-05-15T16:16:38.918Z,47.17
2023-05-15T16:19:36.592Z,47.29
2023-05-15T16:22:34.031Z,47.57
2023-05-15T16:25:31.838Z,48.15
2023-05-15T16:28:29.294Z,48.30
2023-05-15T16:31:27.519Z,48.57
2023-05-15T16:34:25.482Z,49.01
2023-05-15T16:37:23.143Z,49.13
2023-05-15T16:40:21.017Z,49.30
2023-05-15T16:43:18.422Z,49.51
2023-05-15T16:46:16.599Z,49.76
2023-05-15T16:49:14.090Z,49.91
2023-05-15T16:52:12.041Z,50.31
2023-05-15T16:55:09.600Z,50.75
2023-05-15T16:58:07.320Z,50.67
2023-05-15T17:01:06.519Z,50.85
2023-05-15T17:04:04.101Z,51.35
2023-05-15T17:07:02.203Z,51.42
2023-05-15T17:09:59.693Z,51.48
2023-05-15T17:12:57.890Z,51.62
2023-05-15T17:15:55.377Z,51.66
2023-05-15T17:18:53.562Z,51.94
2023-05-15T17:21:51.012Z,52.35
2023-05-15T17:24:50.685Z,52.60
2023-05-15T17:27:49.598Z,53.14
2023-05-15T17:30:47.015Z,53.14
2023-05-15T17:33:45.675Z,53.41
2023-05-15T17:36:44.822Z,53.97
2023-05-15T17:39:42.465Z,54.46
2023-05-15T17:42:40.075Z,54.92
2023-05-15T17:45:37.595Z,55.05
2023-05-15T17:48:36.129Z,55.49
2023-05-15T17:51:33.565Z,55.24
2023-05-15T17:54:32.068Z,55.48
2023-05-15T17:57:29.629Z,56.01
2023-05-15T18:00:27.076Z,56.16
2023-05-15T18:03:24.803Z,56.63
2023-05-15T18:06:22.421Z,56.95
2023-05-15T18:09:23.873Z,56.88
2023-05-15T18:12:21.652Z,57.20
2023-05-15T18:15:20.784Z,57.53
2023-05-15T18:18:18.405Z,57.73
2023-05-15T18:21:16.210Z,57.69
2023-05-15T18:24:14.542Z,58.02
2023-05-15T18:27:11.968Z,58.22
2023-05-15T18:30:09.659Z,58.54
2023-05-15T18:33:07.183Z,58.67
2023-05-15T18:36:06.696Z,59.01
2023-05-15T18:39:05.139Z,59.40
2023-05-15T18:42:04.115Z,59.63
2023-05-15T18:45:02.319Z,59.95
2023-05-15T18:48:00.271Z,60.22
2023-05-15T18:50:59.199Z,60.55
2023-05-15T18:53:57.108Z,60.77
2023-05-15T18:56:54.906Z,61.02
2023-05-15T18:59:52.908Z,61.32
2023-05-15T19:02:50.637Z,61.61
2023-05-15T19:05:48.280Z,61.99
2023-05-15T19:08:45.944Z,62.33
2023-05-15T19:11:45.291Z,62.49
2023-05-15T19:14:42.955Z,62.67
2023-05-15T19:17:41.246Z,62.88
2023-05-15T19:20:38.737Z,63.12
2023-05-15T19:23:36.437Z,63.51
2023-05-15T19:26:34.074Z,63.66
2023-05-15T19:29:32.498Z,63.98
2023-05-15T19:32:30.417Z,64.36
2023-05-15T19:35:28.106Z,64.66
2023-05-15T19:38:26.526Z,64.93
2023-05-15T19:41:23.974Z,65.23
2023-05-15T19:44:21.808Z,65.52
2023-05-15T19:47:19.418Z,65.72
2023-05-15T19:50:17.778Z,66.11
2023-05-15T19:53:15.196Z,66.38
2023-05-15T19:56:14.021Z,66.67
2023-05-15T19:59:11.760Z,66.95
2023-05-15T20:02:11.187Z,67.19
2023-05-15T20:05:09.525Z,67.36
2023-05-15T20:08:07.032Z,67.68
2023-05-15T20:11:04.809Z,67.86
2023-05-15T20:14:02.282Z,67.96
2023-05-15T20:17:00.087Z,68.12
2023-05-15T20:19:59.159Z,68.33
2023-05-15T20:22:56.912Z,68.43
2023-05-15T20:25:54.539Z,68.70
2023-05-15T20:28:52.260Z,69.00
2023-05-15T20:31:51.819Z,69.10
2023-05-15T20:34:49.349Z,69.39
2023-05-15T20:37:47.267Z,69.53
2023-05-15T20:40:44.680Z,69.72
2023-05-15T20:43:42.510Z,69.86
2023-05-15T20:46:40.169Z,69.98
2023-05-15T20:49:37.585Z,70.14
2023-05-15T20:52:35.292Z,70.31
2023-05-15T20:55:32.686Z,70.48
2023-05-15T20:58:30.419Z,70.58
2023-05-15T21:01:27.920Z,70.66
2023-05-15T21:04:25.940Z,70.83
2023-05-15T21:07:23.304Z,70.94
2023-05-15T21:10:21.105Z,71.14
2023-05-15T21:13:18.501Z,71.13
2023-05-15T21:16:16.145Z,71.39
2023-05-15T21:19:14.201Z,71.54
2023-05-15T21:22:11.605Z,71.70
2023-05-15T21:25:09.309Z,71.84
2023-05-15T21:28:07.702Z,71.96
2023-05-15T21:31:06.081Z,72.11
2023-05-15T21:34:03.572Z,72.25
2023-05-15T21:37:01.157Z,72.50
2023-05-15T21:39:58.856Z,72.66
2023-05-15T21:42:56.255Z,72.75
2023-05-15T21:45:53.963Z,72.84
2023-05-15T21:48:51.361Z,72.99
2023-05-15T21:51:49.065Z,73.12
2023-05-15T21:54:46.496Z,73.19
2023-05-15T21:57:44.272Z,73.28
2023-05-15T22:00:41.964Z,73.37
2023-05-15T22:03:39.541Z,73.50
2023-05-15T22:06:37.430Z,73.62
2023-05-15T22:09:35.056Z,73.72
2023-05-15T22:12:33.590Z,73.75
2023-05-15T22:15:31.054Z,73.94
2023-05-15T22:18:29.158Z,74.11
2023-05-15T22:21:27.062Z,74.18
2023-05-15T22:24:24.465Z,74.26
2023-05-15T22:27:22.198Z,74.43
2023-05-15T22:30:19.632Z,74.50
2023-05-15T22:33:17.312Z,74.56
2023-05-15T22:36:14.692Z,74.55
2023-05-15T22:39:12.569Z,74.53
2023-05-15T22:42:12.669Z,74.42
2023-05-15T22:45:10.335Z,74.15
2023-05-15T22:48:08.035Z,73.76
2023-05-15T22:51:06.909Z,73.55
2023-05-15T22:54:06.678Z,73.49
2023-05-15T22:57:04.072Z,73.21
2023-05-15T23:00:02.023Z,73.27
2023-05-15T23:02:59.854Z,73.20
2023-05-15T23:05:57.329Z,73.17
2023-05-15T23:08:55.146Z,73.08
2023-05-15T23:11:52.759Z,73.03
2023-05-15T23:14:50.350Z,72.81
2023-05-15T23:17:47.856Z,72.79
2023-05-15T23:20:46.214Z,72.81
2023-05-15T23:23:44.809Z,72.66
2023-05-15T23:26:42.422Z,72.69
2023-05-15T23:29:40.119Z,72.69
2023-05-15T23:32:37.591Z,72.56
2023-05-15T23:35:35.299Z,72.51
2023-05-15T23:38:32.690Z,72.54
2023-05-15T23:41:30.495Z,72.51
2023-05-15T23:44:27.961Z,72.54
2023-05-15T23:47:25.568Z,72.61
2023-05-15T23:50:23.339Z,72.52
2023-05-15T23:53:23.556Z,72.60
2023-05-15T23:56:21.259Z,72.62
2023-05-15T23:59:18.655Z,72.59
